sensor_id;sensor_type;location;lat;lon;timestamp;P1;durP1;ratioP1;P2;durP2;ratioP2
21677;SDS011;11000;50.360;7.582;2023-03-03T00:00:37;12.90;;;7.37;;
21677;SDS011;11000;50.360;7.582;2023-03-03T00:02:57;13.43;;;7.70;;
21677;SDS011;11000;50.360;7.582;2023-03-03T00:05:22;11.60;;;7.30;;
21677;SDS011;11000;50.360;7.582;2023-03-03T00:07:43;10.97;;;7.23;;
21677;SDS011;11000;50.360;7.582;2023-03-03T00:10:04;12.73;;;7.60;;
21677;SDS011;11000;50.360;7.582;2023-03-03T00:12:27;12.03;;;6.93;;
21677;SDS011;11000;50.360;7.582;2023-03-03T00:14:49;16.50;;;7.60;;
21677;SDS011;11000;50.360;7.582;2023-03-03T00:17:15;11.70;;;7.57;;
21677;SDS011;11000;50.360;7.582;2023-03-03T00:19:42;15.87;;;7.87;;
21677;SDS011;11000;50.360;7.582;2023-03-03T00:22:06;10.07;;;7.23;;
21677;SDS011;11000;50.360;7.582;2023-03-03T00:24:38;12.53;;;7.30;;
21677;SDS011;11000;50.360;7.582;2023-03-03T00:26:59;10.47;;;6.70;;
21677;SDS011;11000;50.360;7.582;2023-03-03T00:29:28;13.50;;;7.90;;
21677;SDS011;11000;50.360;7.582;2023-03-03T00:31:52;10.23;;;7.67;;
21677;SDS011;11000;50.360;7.582;2023-03-03T00:36:36;12.73;;;8.20;;
21677;SDS011;11000;50.360;7.582;2023-03-03T00:38:59;15.33;;;8.00;;
21677;SDS011;11000;50.360;7.582;2023-03-03T00:41:36;11.13;;;7.83;;
21677;SDS011;11000;50.360;7.582;2023-03-03T00:43:58;13.43;;;8.33;;
21677;SDS011;11000;50.360;7.582;2023-03-03T00:46:20;13.80;;;7.70;;
21677;SDS011;11000;50.360;7.582;2023-03-03T00:48:42;12.90;;;8.17;;
21677;SDS011;11000;50.360;7.582;2023-03-03T00:53:44;12.10;;;7.70;;
21677;SDS011;11000;50.360;7.582;2023-03-03T00:56:04;13.07;;;7.27;;
21677;SDS011;11000;50.360;7.582;2023-03-03T00:58:25;15.63;;;8.00;;
21677;SDS011;11000;50.360;7.582;2023-03-03T01:00:49;13.67;;;7.83;;
21677;SDS011;11000;50.360;7.582;2023-03-03T01:03:14;13.37;;;7.60;;
21677;SDS011;11000;50.360;7.582;2023-03-03T01:05:37;15.37;;;8.27;;
21677;SDS011;11000;50.360;7.582;2023-03-03T01:07:58;12.43;;;8.33;;
21677;SDS011;11000;50.360;7.582;2023-03-03T01:10:18;14.30;;;8.03;;
21677;SDS011;11000;50.360;7.582;2023-03-03T01:12:39;11.50;;;7.80;;
21677;SDS011;11000;50.360;7.582;2023-03-03T01:15:00;14.07;;;7.63;;
21677;SDS011;11000;50.360;7.582;2023-03-03T01:17:21;15.03;;;7.77;;
21677;SDS011;11000;50.360;7.582;2023-03-03T01:19:41;12.63;;;7.40;;
21677;SDS011;11000;50.360;7.582;2023-03-03T01:22:02;12.50;;;8.03;;
21677;SDS011;11000;50.360;7.582;2023-03-03T01:24:22;15.30;;;8.00;;
21677;SDS011;11000;50.360;7.582;2023-03-03T01:26:43;11.57;;;8.47;;
21677;SDS011;11000;50.360;7.582;2023-03-03T01:29:03;12.70;;;8.30;;
21677;SDS011;11000;50.360;7.582;2023-03-03T01:31:24;10.37;;;7.77;;
21677;SDS011;11000;50.360;7.582;2023-03-03T01:33:44;15.07;;;8.67;;
21677;SDS011;11000;50.360;7.582;2023-03-03T01:36:05;14.43;;;8.17;;
21677;SDS011;11000;50.360;7.582;2023-03-03T01:38:26;12.67;;;7.70;;
21677;SDS011;11000;50.360;7.582;2023-03-03T01:40:51;12.63;;;7.93;;
21677;SDS011;11000;50.360;7.582;2023-03-03T01:43:14;13.37;;;7.90;;
21677;SDS011;11000;50.360;7.582;2023-03-03T01:46:20;14.90;;;8.27;;
21677;SDS011;11000;50.360;7.582;2023-03-03T01:48:27;14.17;;;8.00;;
21677;SDS011;11000;50.360;7.582;2023-03-03T01:50:53;13.30;;;7.67;;
21677;SDS011;11000;50.360;7.582;2023-03-03T01:53:23;13.47;;;7.67;;
21677;SDS011;11000;50.360;7.582;2023-03-03T01:55:57;15.07;;;8.30;;
21677;SDS011;11000;50.360;7.582;2023-03-03T01:58:23;12.67;;;8.57;;
21677;SDS011;11000;50.360;7.582;2023-03-03T02:00:48;12.73;;;8.43;;
21677;SDS011;11000;50.360;7.582;2023-03-03T02:03:14;12.93;;;7.80;;
21677;SDS011;11000;50.360;7.582;2023-03-03T02:05:34;11.90;;;7.70;;
21677;SDS011;11000;50.360;7.582;2023-03-03T02:07:55;15.73;;;8.37;;
21677;SDS011;11000;50.360;7.582;2023-03-03T02:10:17;14.47;;;7.50;;
21677;SDS011;11000;50.360;7.582;2023-03-03T02:12:41;10.73;;;7.60;;
21677;SDS011;11000;50.360;7.582;2023-03-03T02:15:38;10.40;;;7.10;;
21677;SDS011;11000;50.360;7.582;2023-03-03T02:17:57;11.80;;;7.27;;
21677;SDS011;11000;50.360;7.582;2023-03-03T02:23:23;15.07;;;7.80;;
21677;SDS011;11000;50.360;7.582;2023-03-03T02:25:51;14.37;;;7.53;;
21677;SDS011;11000;50.360;7.582;2023-03-03T02:28:16;13.77;;;8.00;;
21677;SDS011;11000;50.360;7.582;2023-03-03T02:30:37;14.03;;;7.80;;
21677;SDS011;11000;50.360;7.582;2023-03-03T02:32:58;10.27;;;7.50;;
21677;SDS011;11000;50.360;7.582;2023-03-03T02:35:40;12.67;;;7.70;;
21677;SDS011;11000;50.360;7.582;2023-03-03T02:38:06;12.07;;;7.07;;
21677;SDS011;11000;50.360;7.582;2023-03-03T02:40:48;15.07;;;8.83;;
21677;SDS011;11000;50.360;7.582;2023-03-03T02:43:33;11.83;;;8.13;;
21677;SDS011;11000;50.360;7.582;2023-03-03T02:46:01;11.73;;;6.97;;
21677;SDS011;11000;50.360;7.582;2023-03-03T02:48:21;17.07;;;8.57;;
21677;SDS011;11000;50.360;7.582;2023-03-03T02:50:42;12.50;;;7.47;;
21677;SDS011;11000;50.360;7.582;2023-03-03T02:53:02;10.80;;;7.57;;
21677;SDS011;11000;50.360;7.582;2023-03-03T02:55:23;15.10;;;8.27;;
21677;SDS011;11000;50.360;7.582;2023-03-03T02:57:43;11.63;;;7.03;;
21677;SDS011;11000;50.360;7.582;2023-03-03T03:00:04;15.40;;;7.70;;
21677;SDS011;11000;50.360;7.582;2023-03-03T03:02:25;10.87;;;7.57;;
21677;SDS011;11000;50.360;7.582;2023-03-03T03:04:46;11.97;;;7.80;;
21677;SDS011;11000;50.360;7.582;2023-03-03T03:07:06;11.57;;;7.77;;
21677;SDS011;11000;50.360;7.582;2023-03-03T03:09:27;13.53;;;8.40;;
21677;SDS011;11000;50.360;7.582;2023-03-03T03:11:47;12.43;;;8.13;;
21677;SDS011;11000;50.360;7.582;2023-03-03T03:14:09;15.17;;;8.53;;
21677;SDS011;11000;50.360;7.582;2023-03-03T03:16:30;14.30;;;8.90;;
21677;SDS011;11000;50.360;7.582;2023-03-03T03:18:51;11.13;;;7.13;;
21677;SDS011;11000;50.360;7.582;2023-03-03T03:21:12;12.07;;;7.87;;
21677;SDS011;11000;50.360;7.582;2023-03-03T03:23:33;16.10;;;8.20;;
21677;SDS011;11000;50.360;7.582;2023-03-03T03:25:53;13.53;;;7.50;;
21677;SDS011;11000;50.360;7.582;2023-03-03T03:28:14;10.33;;;7.17;;
21677;SDS011;11000;50.360;7.582;2023-03-03T03:30:36;13.10;;;8.40;;
21677;SDS011;11000;50.360;7.582;2023-03-03T03:32:56;12.07;;;7.63;;
21677;SDS011;11000;50.360;7.582;2023-03-03T03:35:17;13.93;;;7.87;;
21677;SDS011;11000;50.360;7.582;2023-03-03T03:37:37;11.17;;;7.40;;
21677;SDS011;11000;50.360;7.582;2023-03-03T03:39:58;11.07;;;6.83;;
21677;SDS011;11000;50.360;7.582;2023-03-03T03:42:19;11.90;;;7.53;;
21677;SDS011;11000;50.360;7.582;2023-03-03T03:44:39;15.20;;;8.67;;
21677;SDS011;11000;50.360;7.582;2023-03-03T03:47:00;16.53;;;9.87;;
21677;SDS011;11000;50.360;7.582;2023-03-03T03:49:20;12.37;;;8.03;;
21677;SDS011;11000;50.360;7.582;2023-03-03T03:51:41;11.53;;;7.63;;
21677;SDS011;11000;50.360;7.582;2023-03-03T03:54:01;13.57;;;8.70;;
21677;SDS011;11000;50.360;7.582;2023-03-03T03:56:22;13.93;;;7.80;;
21677;SDS011;11000;50.360;7.582;2023-03-03T03:58:43;11.73;;;8.00;;
21677;SDS011;11000;50.360;7.582;2023-03-03T04:01:04;11.73;;;7.83;;
21677;SDS011;11000;50.360;7.582;2023-03-03T04:03:26;14.50;;;8.80;;
21677;SDS011;11000;50.360;7.582;2023-03-03T04:05:46;13.10;;;8.33;;
21677;SDS011;11000;50.360;7.582;2023-03-03T04:08:07;12.50;;;7.80;;
21677;SDS011;11000;50.360;7.582;2023-03-03T04:10:28;13.53;;;8.30;;
21677;SDS011;11000;50.360;7.582;2023-03-03T04:12:49;14.60;;;8.27;;
21677;SDS011;11000;50.360;7.582;2023-03-03T04:15:10;11.23;;;7.20;;
21677;SDS011;11000;50.360;7.582;2023-03-03T04:17:32;12.30;;;8.10;;
21677;SDS011;11000;50.360;7.582;2023-03-03T04:19:52;12.60;;;8.30;;
21677;SDS011;11000;50.360;7.582;2023-03-03T04:22:13;14.03;;;8.80;;
21677;SDS011;11000;50.360;7.582;2023-03-03T04:24:34;13.00;;;7.83;;
21677;SDS011;11000;50.360;7.582;2023-03-03T04:26:54;13.07;;;8.07;;
21677;SDS011;11000;50.360;7.582;2023-03-03T04:29:15;14.17;;;8.63;;
21677;SDS011;11000;50.360;7.582;2023-03-03T04:31:35;17.70;;;9.73;;
21677;SDS011;11000;50.360;7.582;2023-03-03T04:33:56;15.47;;;9.37;;
21677;SDS011;11000;50.360;7.582;2023-03-03T04:36:16;18.93;;;10.23;;
21677;SDS011;11000;50.360;7.582;2023-03-03T04:38:37;21.23;;;10.70;;
21677;SDS011;11000;50.360;7.582;2023-03-03T04:40:57;19.93;;;11.10;;
21677;SDS011;11000;50.360;7.582;2023-03-03T04:43:18;19.43;;;10.83;;
21677;SDS011;11000;50.360;7.582;2023-03-03T04:45:39;20.80;;;12.63;;
21677;SDS011;11000;50.360;7.582;2023-03-03T04:47:59;22.60;;;12.37;;
21677;SDS011;11000;50.360;7.582;2023-03-03T04:50:19;24.07;;;12.50;;
21677;SDS011;11000;50.360;7.582;2023-03-03T04:52:40;20.73;;;12.50;;
21677;SDS011;11000;50.360;7.582;2023-03-03T04:55:01;22.87;;;12.40;;
21677;SDS011;11000;50.360;7.582;2023-03-03T04:57:21;25.77;;;14.10;;
21677;SDS011;11000;50.360;7.582;2023-03-03T04:59:42;27.70;;;13.60;;
21677;SDS011;11000;50.360;7.582;2023-03-03T05:02:02;31.47;;;15.40;;
21677;SDS011;11000;50.360;7.582;2023-03-03T05:04:24;27.27;;;14.53;;
21677;SDS011;11000;50.360;7.582;2023-03-03T05:06:44;36.53;;;16.97;;
21677;SDS011;11000;50.360;7.582;2023-03-03T05:09:05;33.33;;;17.40;;
21677;SDS011;11000;50.360;7.582;2023-03-03T05:11:25;37.70;;;19.43;;
21677;SDS011;11000;50.360;7.582;2023-03-03T05:13:46;43.97;;;19.83;;
21677;SDS011;11000;50.360;7.582;2023-03-03T05:16:06;43.23;;;20.03;;
21677;SDS011;11000;50.360;7.582;2023-03-03T05:18:27;40.23;;;20.83;;
21677;SDS011;11000;50.360;7.582;2023-03-03T05:20:48;45.20;;;22.60;;
21677;SDS011;11000;50.360;7.582;2023-03-03T05:23:10;47.00;;;22.03;;
21677;SDS011;11000;50.360;7.582;2023-03-03T05:25:31;45.07;;;23.17;;
21677;SDS011;11000;50.360;7.582;2023-03-03T05:27:51;46.93;;;22.97;;
21677;SDS011;11000;50.360;7.582;2023-03-03T05:30:13;44.10;;;22.93;;
21677;SDS011;11000;50.360;7.582;2023-03-03T05:32:34;48.23;;;22.97;;
21677;SDS011;11000;50.360;7.582;2023-03-03T05:34:55;48.97;;;24.13;;
21677;SDS011;11000;50.360;7.582;2023-03-03T05:37:15;49.63;;;23.93;;
21677;SDS011;11000;50.360;7.582;2023-03-03T05:39:36;48.93;;;23.00;;
21677;SDS011;11000;50.360;7.582;2023-03-03T05:41:56;47.63;;;21.67;;
21677;SDS011;11000;50.360;7.582;2023-03-03T05:44:17;48.03;;;24.20;;
21677;SDS011;11000;50.360;7.582;2023-03-03T05:46:37;49.53;;;24.07;;
21677;SDS011;11000;50.360;7.582;2023-03-03T05:48:59;51.20;;;24.87;;
21677;SDS011;11000;50.360;7.582;2023-03-03T05:51:19;48.13;;;24.73;;
21677;SDS011;11000;50.360;7.582;2023-03-03T05:53:40;54.53;;;26.00;;
21677;SDS011;11000;50.360;7.582;2023-03-03T05:56:00;52.43;;;25.87;;
21677;SDS011;11000;50.360;7.582;2023-03-03T05:58:21;51.33;;;26.83;;
21677;SDS011;11000;50.360;7.582;2023-03-03T06:00:42;53.20;;;25.93;;
21677;SDS011;11000;50.360;7.582;2023-03-03T06:03:02;55.50;;;26.80;;
21677;SDS011;11000;50.360;7.582;2023-03-03T06:05:23;58.67;;;28.53;;
21677;SDS011;11000;50.360;7.582;2023-03-03T06:07:44;57.93;;;28.80;;
21677;SDS011;11000;50.360;7.582;2023-03-03T06:10:04;64.33;;;29.90;;
21677;SDS011;11000;50.360;7.582;2023-03-03T06:12:26;61.97;;;28.63;;
21677;SDS011;11000;50.360;7.582;2023-03-03T06:14:46;69.33;;;29.43;;
21677;SDS011;11000;50.360;7.582;2023-03-03T06:17:07;66.40;;;29.20;;
21677;SDS011;11000;50.360;7.582;2023-03-03T06:19:27;64.57;;;30.00;;
21677;SDS011;11000;50.360;7.582;2023-03-03T06:21:48;68.43;;;31.00;;
21677;SDS011;11000;50.360;7.582;2023-03-03T06:24:08;64.30;;;30.57;;
21677;SDS011;11000;50.360;7.582;2023-03-03T06:26:30;63.03;;;30.63;;
21677;SDS011;11000;50.360;7.582;2023-03-03T06:28:51;74.30;;;31.37;;
21677;SDS011;11000;50.360;7.582;2023-03-03T06:31:14;71.87;;;30.80;;
21677;SDS011;11000;50.360;7.582;2023-03-03T06:33:34;73.60;;;31.33;;
21677;SDS011;11000;50.360;7.582;2023-03-03T06:35:55;69.13;;;30.77;;
21677;SDS011;11000;50.360;7.582;2023-03-03T06:38:15;67.83;;;31.80;;
21677;SDS011;11000;50.360;7.582;2023-03-03T06:40:36;72.03;;;31.53;;
21677;SDS011;11000;50.360;7.582;2023-03-03T06:42:56;69.73;;;31.37;;
21677;SDS011;11000;50.360;7.582;2023-03-03T06:45:17;69.63;;;30.97;;
21677;SDS011;11000;50.360;7.582;2023-03-03T06:47:37;71.57;;;33.13;;
21677;SDS011;11000;50.360;7.582;2023-03-03T06:49:58;70.17;;;32.90;;
21677;SDS011;11000;50.360;7.582;2023-03-03T06:52:22;72.03;;;34.10;;
21677;SDS011;11000;50.360;7.582;2023-03-03T06:54:48;70.07;;;32.40;;
21677;SDS011;11000;50.360;7.582;2023-03-03T06:57:14;61.03;;;30.67;;
21677;SDS011;11000;50.360;7.582;2023-03-03T06:59:35;69.43;;;34.07;;
21677;SDS011;11000;50.360;7.582;2023-03-03T07:01:56;65.77;;;31.93;;
21677;SDS011;11000;50.360;7.582;2023-03-03T07:04:27;65.40;;;29.50;;
21677;SDS011;11000;50.360;7.582;2023-03-03T07:06:50;67.47;;;31.53;;
21677;SDS011;11000;50.360;7.582;2023-03-03T07:09:17;68.53;;;30.47;;
21677;SDS011;11000;50.360;7.582;2023-03-03T07:11:41;61.87;;;29.80;;
21677;SDS011;11000;50.360;7.582;2023-03-03T07:14:02;66.07;;;31.20;;
21677;SDS011;11000;50.360;7.582;2023-03-03T07:16:32;63.63;;;29.43;;
21677;SDS011;11000;50.360;7.582;2023-03-03T07:18:54;54.43;;;27.23;;
21677;SDS011;11000;50.360;7.582;2023-03-03T07:21:16;62.53;;;28.80;;
21677;SDS011;11000;50.360;7.582;2023-03-03T07:23:38;53.63;;;27.27;;
21677;SDS011;11000;50.360;7.582;2023-03-03T07:26:02;56.13;;;27.60;;
21677;SDS011;11000;50.360;7.582;2023-03-03T07:28:24;56.67;;;28.07;;
21677;SDS011;11000;50.360;7.582;2023-03-03T07:30:46;56.80;;;27.17;;
21677;SDS011;11000;50.360;7.582;2023-03-03T07:33:07;58.60;;;27.63;;
21677;SDS011;11000;50.360;7.582;2023-03-03T07:35:58;54.07;;;26.87;;
21677;SDS011;11000;50.360;7.582;2023-03-03T07:38:24;51.43;;;25.97;;
21677;SDS011;11000;50.360;7.582;2023-03-03T07:40:50;49.90;;;24.07;;
21677;SDS011;11000;50.360;7.582;2023-03-03T07:45:56;44.83;;;23.77;;
21677;SDS011;11000;50.360;7.582;2023-03-03T07:48:25;42.97;;;22.30;;
21677;SDS011;11000;50.360;7.582;2023-03-03T07:50:55;42.27;;;21.70;;
21677;SDS011;11000;50.360;7.582;2023-03-03T07:55:47;43.93;;;22.27;;
21677;SDS011;11000;50.360;7.582;2023-03-03T08:03:36;43.07;;;22.87;;
21677;SDS011;11000;50.360;7.582;2023-03-03T08:05:57;49.27;;;23.80;;
21677;SDS011;11000;50.360;7.582;2023-03-03T08:08:21;40.33;;;21.30;;
21677;SDS011;11000;50.360;7.582;2023-03-03T08:10:52;48.57;;;23.87;;
21677;SDS011;11000;50.360;7.582;2023-03-03T08:15:43;44.17;;;23.13;;
21677;SDS011;11000;50.360;7.582;2023-03-03T08:18:14;46.20;;;22.97;;
21677;SDS011;11000;50.360;7.582;2023-03-03T08:20:49;45.83;;;23.10;;
21677;SDS011;11000;50.360;7.582;2023-03-03T08:23:11;44.53;;;22.73;;
21677;SDS011;11000;50.360;7.582;2023-03-03T08:25:33;46.60;;;23.03;;
21677;SDS011;11000;50.360;7.582;2023-03-03T08:27:53;47.27;;;23.47;;
21677;SDS011;11000;50.360;7.582;2023-03-03T08:30:14;42.13;;;22.43;;
21677;SDS011;11000;50.360;7.582;2023-03-03T08:32:35;43.53;;;24.13;;
21677;SDS011;11000;50.360;7.582;2023-03-03T08:34:55;47.73;;;24.30;;
21677;SDS011;11000;50.360;7.582;2023-03-03T08:37:15;45.97;;;23.13;;
21677;SDS011;11000;50.360;7.582;2023-03-03T08:39:36;43.80;;;23.57;;
21677;SDS011;11000;50.360;7.582;2023-03-03T08:41:57;43.70;;;23.67;;
21677;SDS011;11000;50.360;7.582;2023-03-03T08:44:17;41.47;;;21.93;;
21677;SDS011;11000;50.360;7.582;2023-03-03T08:46:39;45.30;;;23.03;;
21677;SDS011;11000;50.360;7.582;2023-03-03T08:48:59;46.93;;;24.20;;
21677;SDS011;11000;50.360;7.582;2023-03-03T08:51:20;49.13;;;25.50;;
21677;SDS011;11000;50.360;7.582;2023-03-03T08:53:41;46.13;;;23.80;;
21677;SDS011;11000;50.360;7.582;2023-03-03T08:56:02;47.13;;;25.10;;
21677;SDS011;11000;50.360;7.582;2023-03-03T08:58:23;45.83;;;24.90;;
21677;SDS011;11000;50.360;7.582;2023-03-03T09:00:44;44.90;;;25.30;;
21677;SDS011;11000;50.360;7.582;2023-03-03T09:03:05;45.87;;;24.73;;
21677;SDS011;11000;50.360;7.582;2023-03-03T09:05:26;47.07;;;24.80;;
21677;SDS011;11000;50.360;7.582;2023-03-03T09:07:47;41.97;;;23.67;;
21677;SDS011;11000;50.360;7.582;2023-03-03T09:10:08;47.53;;;24.23;;
21677;SDS011;11000;50.360;7.582;2023-03-03T09:12:35;46.57;;;23.57;;
21677;SDS011;11000;50.360;7.582;2023-03-03T09:15:10;42.93;;;22.93;;
21677;SDS011;11000;50.360;7.582;2023-03-03T09:17:38;44.83;;;23.27;;
21677;SDS011;11000;50.360;7.582;2023-03-03T09:19:59;42.70;;;22.93;;
21677;SDS011;11000;50.360;7.582;2023-03-03T09:22:41;43.20;;;22.97;;
21677;SDS011;11000;50.360;7.582;2023-03-03T09:25:05;45.13;;;24.40;;
21677;SDS011;11000;50.360;7.582;2023-03-03T09:27:39;43.47;;;23.33;;
21677;SDS011;11000;50.360;7.582;2023-03-03T09:30:01;45.23;;;24.87;;
21677;SDS011;11000;50.360;7.582;2023-03-03T09:32:41;48.50;;;24.00;;
21677;SDS011;11000;50.360;7.582;2023-03-03T09:37:56;42.57;;;23.43;;
21677;SDS011;11000;50.360;7.582;2023-03-03T09:43:11;42.73;;;23.43;;
21677;SDS011;11000;50.360;7.582;2023-03-03T09:45:55;43.20;;;23.73;;
21677;SDS011;11000;50.360;7.582;2023-03-03T09:48:40;48.07;;;24.67;;
21677;SDS011;11000;50.360;7.582;2023-03-03T09:51:25;49.77;;;25.73;;
21677;SDS011;11000;50.360;7.582;2023-03-03T09:56:46;46.57;;;24.37;;
21677;SDS011;11000;50.360;7.582;2023-03-03T09:59:15;51.60;;;25.37;;
21677;SDS011;11000;50.360;7.582;2023-03-03T10:02:34;49.10;;;24.83;;
21677;SDS011;11000;50.360;7.582;2023-03-03T10:21:43;43.53;;;24.03;;
21677;SDS011;11000;50.360;7.582;2023-03-03T10:25:00;41.57;;;23.27;;
21677;SDS011;11000;50.360;7.582;2023-03-03T10:27:27;48.73;;;24.50;;
21677;SDS011;11000;50.360;7.582;2023-03-03T10:30:06;47.70;;;26.13;;
21677;SDS011;11000;50.360;7.582;2023-03-03T10:35:50;49.40;;;25.03;;
21677;SDS011;11000;50.360;7.582;2023-03-03T10:51:32;46.63;;;24.40;;
21677;SDS011;11000;50.360;7.582;2023-03-03T10:54:16;49.47;;;25.83;;
21677;SDS011;11000;50.360;7.582;2023-03-03T10:56:46;46.20;;;25.27;;
21677;SDS011;11000;50.360;7.582;2023-03-03T10:59:30;43.60;;;23.67;;
21677;SDS011;11000;50.360;7.582;2023-03-03T11:02:00;40.90;;;21.93;;
21677;SDS011;11000;50.360;7.582;2023-03-03T11:10:17;43.80;;;22.57;;
21677;SDS011;11000;50.360;7.582;2023-03-03T11:13:04;41.17;;;23.10;;
21677;SDS011;11000;50.360;7.582;2023-03-03T11:21:25;43.17;;;24.43;;
21677;SDS011;11000;50.360;7.582;2023-03-03T11:24:05;40.80;;;23.27;;
21677;SDS011;11000;50.360;7.582;2023-03-03T11:26:44;40.60;;;22.10;;
21677;SDS011;11000;50.360;7.582;2023-03-03T11:29:21;38.23;;;22.33;;
21677;SDS011;11000;50.360;7.582;2023-03-03T11:34:57;40.67;;;21.50;;
21677;SDS011;11000;50.360;7.582;2023-03-03T11:37:39;38.30;;;22.27;;
21677;SDS011;11000;50.360;7.582;2023-03-03T11:40:26;40.23;;;23.07;;
21677;SDS011;11000;50.360;7.582;2023-03-03T11:45:46;40.30;;;22.07;;
21677;SDS011;11000;50.360;7.582;2023-03-03T11:48:17;40.67;;;22.73;;
21677;SDS011;11000;50.360;7.582;2023-03-03T11:50:49;38.20;;;21.33;;
21677;SDS011;11000;50.360;7.582;2023-03-03T11:53:36;40.17;;;22.00;;
21677;SDS011;11000;50.360;7.582;2023-03-03T11:56:16;43.43;;;22.97;;
21677;SDS011;11000;50.360;7.582;2023-03-03T11:58:50;41.50;;;22.67;;
21677;SDS011;11000;50.360;7.582;2023-03-03T12:01:22;41.03;;;21.53;;
21677;SDS011;11000;50.360;7.582;2023-03-03T12:03:56;37.23;;;21.63;;
21677;SDS011;11000;50.360;7.582;2023-03-03T12:17:05;40.90;;;22.17;;
21677;SDS011;11000;50.360;7.582;2023-03-03T12:24:34;39.40;;;22.33;;
21677;SDS011;11000;50.360;7.582;2023-03-03T12:27:29;38.37;;;21.20;;
21677;SDS011;11000;50.360;7.582;2023-03-03T12:32:57;42.73;;;21.63;;
21677;SDS011;11000;50.360;7.582;2023-03-03T12:35:30;40.40;;;22.60;;
21677;SDS011;11000;50.360;7.582;2023-03-03T12:38:01;42.40;;;21.83;;
21677;SDS011;11000;50.360;7.582;2023-03-03T12:40:34;37.77;;;21.77;;
21677;SDS011;11000;50.360;7.582;2023-03-03T12:43:06;37.57;;;21.27;;
21677;SDS011;11000;50.360;7.582;2023-03-03T12:45:50;40.10;;;22.80;;
21677;SDS011;11000;50.360;7.582;2023-03-03T12:50:56;38.80;;;21.90;;
21677;SDS011;11000;50.360;7.582;2023-03-03T12:53:35;42.43;;;22.63;;
21677;SDS011;11000;50.360;7.582;2023-03-03T12:56:18;37.27;;;21.10;;
21677;SDS011;11000;50.360;7.582;2023-03-03T13:04:51;40.93;;;22.13;;
21677;SDS011;11000;50.360;7.582;2023-03-03T13:07:44;41.00;;;22.10;;
21677;SDS011;11000;50.360;7.582;2023-03-03T13:10:27;42.17;;;23.00;;
21677;SDS011;11000;50.360;7.582;2023-03-03T13:13:10;43.43;;;22.27;;
21677;SDS011;11000;50.360;7.582;2023-03-03T13:15:43;44.57;;;25.23;;
21677;SDS011;11000;50.360;7.582;2023-03-03T13:18:32;44.83;;;24.80;;
21677;SDS011;11000;50.360;7.582;2023-03-03T13:21:20;46.73;;;24.90;;
21677;SDS011;11000;50.360;7.582;2023-03-03T13:26:34;43.40;;;24.17;;
21677;SDS011;11000;50.360;7.582;2023-03-03T13:31:56;38.67;;;23.13;;
21677;SDS011;11000;50.360;7.582;2023-03-03T13:37:19;44.37;;;24.63;;
21677;SDS011;11000;50.360;7.582;2023-03-03T13:39:55;45.80;;;26.17;;
21677;SDS011;11000;50.360;7.582;2023-03-03T13:45:13;44.20;;;26.37;;
21677;SDS011;11000;50.360;7.582;2023-03-03T13:47:47;42.80;;;25.23;;
21677;SDS011;11000;50.360;7.582;2023-03-03T13:56:01;42.40;;;25.47;;
21677;SDS011;11000;50.360;7.582;2023-03-03T13:58:58;47.00;;;26.73;;
21677;SDS011;11000;50.360;7.582;2023-03-03T14:04:30;41.07;;;24.67;;
21677;SDS011;11000;50.360;7.582;2023-03-03T14:07:23;41.17;;;24.97;;
21677;SDS011;11000;50.360;7.582;2023-03-03T14:22:51;38.97;;;22.60;;
21677;SDS011;11000;50.360;7.582;2023-03-03T14:25:18;41.83;;;24.07;;
21677;SDS011;11000;50.360;7.582;2023-03-03T14:32:41;40.33;;;24.63;;
21677;SDS011;11000;50.360;7.582;2023-03-03T14:35:01;37.47;;;23.30;;
21677;SDS011;11000;50.360;7.582;2023-03-03T14:37:44;36.83;;;23.03;;
21677;SDS011;11000;50.360;7.582;2023-03-03T14:40:13;40.33;;;24.07;;
21677;SDS011;11000;50.360;7.582;2023-03-03T14:47:50;41.40;;;25.47;;
21677;SDS011;11000;50.360;7.582;2023-03-03T14:50:30;38.53;;;24.23;;
21677;SDS011;11000;50.360;7.582;2023-03-03T14:53:07;44.77;;;26.67;;
21677;SDS011;11000;50.360;7.582;2023-03-03T14:55:35;45.20;;;26.77;;
21677;SDS011;11000;50.360;7.582;2023-03-03T14:57:57;45.40;;;27.67;;
21677;SDS011;11000;50.360;7.582;2023-03-03T15:02:57;46.93;;;27.13;;
21677;SDS011;11000;50.360;7.582;2023-03-03T15:05:23;44.10;;;26.13;;
21677;SDS011;11000;50.360;7.582;2023-03-03T15:07:55;46.37;;;26.47;;
21677;SDS011;11000;50.360;7.582;2023-03-03T15:10:30;48.33;;;27.07;;
21677;SDS011;11000;50.360;7.582;2023-03-03T15:12:53;46.90;;;28.03;;
21677;SDS011;11000;50.360;7.582;2023-03-03T15:15:18;45.97;;;26.33;;
21677;SDS011;11000;50.360;7.582;2023-03-03T15:17:41;47.37;;;27.27;;
21677;SDS011;11000;50.360;7.582;2023-03-03T15:20:12;49.30;;;27.17;;
21677;SDS011;11000;50.360;7.582;2023-03-03T15:22:58;42.90;;;25.30;;
21677;SDS011;11000;50.360;7.582;2023-03-03T15:28:15;48.27;;;26.83;;
21677;SDS011;11000;50.360;7.582;2023-03-03T15:30:50;44.30;;;26.47;;
21677;SDS011;11000;50.360;7.582;2023-03-03T15:36:14;49.03;;;27.67;;
21677;SDS011;11000;50.360;7.582;2023-03-03T15:41:49;45.40;;;26.47;;
21677;SDS011;11000;50.360;7.582;2023-03-03T15:49:44;46.13;;;26.57;;
21677;SDS011;11000;50.360;7.582;2023-03-03T15:52:31;49.77;;;26.30;;
21677;SDS011;11000;50.360;7.582;2023-03-03T16:03:21;47.30;;;24.63;;
21677;SDS011;11000;50.360;7.582;2023-03-03T16:06:07;46.67;;;25.63;;
21677;SDS011;11000;50.360;7.582;2023-03-03T16:08:39;48.90;;;26.53;;
21677;SDS011;11000;50.360;7.582;2023-03-03T16:11:27;45.57;;;24.77;;
21677;SDS011;11000;50.360;7.582;2023-03-03T16:14:03;48.30;;;25.10;;
21677;SDS011;11000;50.360;7.582;2023-03-03T16:17:06;43.30;;;23.37;;
21677;SDS011;11000;50.360;7.582;2023-03-03T16:22:33;43.17;;;23.97;;
21677;SDS011;11000;50.360;7.582;2023-03-03T16:30:24;45.83;;;23.77;;
21677;SDS011;11000;50.360;7.582;2023-03-03T16:33:10;52.17;;;23.83;;
21677;SDS011;11000;50.360;7.582;2023-03-03T16:35:35;49.80;;;24.33;;
21677;SDS011;11000;50.360;7.582;2023-03-03T16:38:03;52.43;;;24.50;;
21677;SDS011;11000;50.360;7.582;2023-03-03T16:40:42;52.87;;;24.17;;
21677;SDS011;11000;50.360;7.582;2023-03-03T16:43:31;49.93;;;23.83;;
21677;SDS011;11000;50.360;7.582;2023-03-03T16:56:52;54.33;;;24.87;;
21677;SDS011;11000;50.360;7.582;2023-03-03T17:04:58;59.27;;;26.30;;
21677;SDS011;11000;50.360;7.582;2023-03-03T17:08:02;56.20;;;26.57;;
21677;SDS011;11000;50.360;7.582;2023-03-03T17:10:51;61.43;;;26.77;;
21677;SDS011;11000;50.360;7.582;2023-03-03T17:18:34;63.30;;;27.57;;
21677;SDS011;11000;50.360;7.582;2023-03-03T17:21:23;61.40;;;27.03;;
21677;SDS011;11000;50.360;7.582;2023-03-03T17:32:43;67.83;;;29.47;;
21677;SDS011;11000;50.360;7.582;2023-03-03T17:40:41;79.47;;;32.57;;
21677;SDS011;11000;50.360;7.582;2023-03-03T17:43:28;75.57;;;31.23;;
21677;SDS011;11000;50.360;7.582;2023-03-03T17:45:58;77.87;;;33.43;;
21677;SDS011;11000;50.360;7.582;2023-03-03T17:53:37;79.90;;;34.47;;
21677;SDS011;11000;50.360;7.582;2023-03-03T17:56:37;85.90;;;33.97;;
21677;SDS011;11000;50.360;7.582;2023-03-03T18:14:43;98.50;;;39.50;;
21677;SDS011;11000;50.360;7.582;2023-03-03T18:17:32;93.80;;;37.90;;
21677;SDS011;11000;50.360;7.582;2023-03-03T18:22:46;96.37;;;37.93;;
21677;SDS011;11000;50.360;7.582;2023-03-03T18:25:11;94.53;;;38.37;;
21677;SDS011;11000;50.360;7.582;2023-03-03T18:27:37;99.10;;;39.07;;
21677;SDS011;11000;50.360;7.582;2023-03-03T18:30:12;103.53;;;39.20;;